Terminal Aerodrome Forecast
Issued by NWS Jackson, MS

Home | Current Version | Previous Version | Text Only | Print | Product List | Glossary On
Versions: 1 2 3 4 5 6 7 8 9 10 11 12 13
000
FTUS44 KJAN 181700
TAFJAN
TAF
KJAN 181739Z 1818/1918 VRB03KT P6SM FEW120 BKN250
     FM182200 13003KT P6SM VCTS BKN050CB BKN250
     FM190100 14002KT P6SM SCT250=

USA.gov is the U.S. government's official web portal to all federal, state and local government web resources and services.